sensor_id;sensor_type;location;lat;lon;timestamp;P1;durP1;ratioP1;P2;durP2;ratioP2
61036;SDS011;57313;47.040;15.498;2022-09-20T00:00:20;2.72;;;1.00;;
61036;SDS011;57313;47.040;15.498;2022-09-20T00:02:47;2.20;;;1.00;;
61036;SDS011;57313;47.040;15.498;2022-09-20T00:05:15;2.72;;;0.90;;
61036;SDS011;57313;47.040;15.498;2022-09-20T00:07:43;2.45;;;0.80;;
61036;SDS011;57313;47.040;15.498;2022-09-20T00:10:10;4.72;;;0.82;;
61036;SDS011;57313;47.040;15.498;2022-09-20T00:12:38;2.30;;;0.80;;
61036;SDS011;57313;47.040;15.498;2022-09-20T00:15:08;3.30;;;0.90;;
61036;SDS011;57313;47.040;15.498;2022-09-20T00:17:36;2.75;;;0.93;;
61036;SDS011;57313;47.040;15.498;2022-09-20T00:20:04;3.42;;;0.90;;
61036;SDS011;57313;47.040;15.498;2022-09-20T00:22:32;2.85;;;0.95;;
61036;SDS011;57313;47.040;15.498;2022-09-20T00:24:59;3.83;;;1.33;;
61036;SDS011;57313;47.040;15.498;2022-09-20T00:27:27;7.35;;;1.25;;
61036;SDS011;57313;47.040;15.498;2022-09-20T00:29:54;4.47;;;1.08;;
61036;SDS011;57313;47.040;15.498;2022-09-20T00:32:24;2.13;;;0.93;;
61036;SDS011;57313;47.040;15.498;2022-09-20T00:34:52;1.95;;;0.80;;
61036;SDS011;57313;47.040;15.498;2022-09-20T00:37:19;2.58;;;0.90;;
61036;SDS011;57313;47.040;15.498;2022-09-20T00:39:47;1.67;;;0.70;;
61036;SDS011;57313;47.040;15.498;2022-09-20T00:42:14;1.92;;;0.80;;
61036;SDS011;57313;47.040;15.498;2022-09-20T00:44:43;4.60;;;1.00;;
61036;SDS011;57313;47.040;15.498;2022-09-20T00:47:18;2.47;;;0.85;;
61036;SDS011;57313;47.040;15.498;2022-09-20T00:49:54;2.17;;;0.90;;
61036;SDS011;57313;47.040;15.498;2022-09-20T00:52:26;3.30;;;1.08;;
61036;SDS011;57313;47.040;15.498;2022-09-20T00:54:55;2.75;;;1.20;;
61036;SDS011;57313;47.040;15.498;2022-09-20T00:57:24;2.45;;;1.00;;
61036;SDS011;57313;47.040;15.498;2022-09-20T00:59:52;2.90;;;0.90;;
61036;SDS011;57313;47.040;15.498;2022-09-20T01:02:21;9.40;;;1.17;;
61036;SDS011;57313;47.040;15.498;2022-09-20T01:04:55;3.55;;;1.10;;
61036;SDS011;57313;47.040;15.498;2022-09-20T01:07:24;3.03;;;1.02;;
61036;SDS011;57313;47.040;15.498;2022-09-20T01:09:52;2.30;;;0.93;;
61036;SDS011;57313;47.040;15.498;2022-09-20T01:12:21;3.30;;;1.27;;
61036;SDS011;57313;47.040;15.498;2022-09-20T01:14:51;3.78;;;1.15;;
61036;SDS011;57313;47.040;15.498;2022-09-20T01:17:21;3.08;;;1.13;;
61036;SDS011;57313;47.040;15.498;2022-09-20T01:19:56;4.18;;;1.30;;
61036;SDS011;57313;47.040;15.498;2022-09-20T01:22:35;2.45;;;1.00;;
61036;SDS011;57313;47.040;15.498;2022-09-20T01:25:10;2.95;;;1.00;;
61036;SDS011;57313;47.040;15.498;2022-09-20T01:27:44;2.55;;;1.00;;
61036;SDS011;57313;47.040;15.498;2022-09-20T01:30:15;3.80;;;1.15;;
61036;SDS011;57313;47.040;15.498;2022-09-20T01:32:50;3.13;;;1.05;;
61036;SDS011;57313;47.040;15.498;2022-09-20T01:35:24;3.30;;;1.15;;
61036;SDS011;57313;47.040;15.498;2022-09-20T01:37:57;2.20;;;1.00;;
61036;SDS011;57313;47.040;15.498;2022-09-20T01:40:41;4.22;;;1.40;;
61036;SDS011;57313;47.040;15.498;2022-09-20T01:43:17;8.18;;;1.40;;
61036;SDS011;57313;47.040;15.498;2022-09-20T01:45:52;4.68;;;1.20;;
61036;SDS011;57313;47.040;15.498;2022-09-20T01:48:23;3.35;;;1.20;;
61036;SDS011;57313;47.040;15.498;2022-09-20T01:53:40;2.65;;;1.00;;
61036;SDS011;57313;47.040;15.498;2022-09-20T01:56:38;4.10;;;1.20;;
61036;SDS011;57313;47.040;15.498;2022-09-20T02:02:55;2.35;;;0.90;;
61036;SDS011;57313;47.040;15.498;2022-09-20T02:06:03;3.75;;;1.00;;
61036;SDS011;57313;47.040;15.498;2022-09-20T02:11:54;9.57;;;1.10;;
61036;SDS011;57313;47.040;15.498;2022-09-20T02:14:42;2.97;;;1.10;;
61036;SDS011;57313;47.040;15.498;2022-09-20T02:17:23;3.05;;;1.00;;
61036;SDS011;57313;47.040;15.498;2022-09-20T02:20:06;3.90;;;1.20;;
61036;SDS011;57313;47.040;15.498;2022-09-20T02:23:00;4.38;;;1.20;;
61036;SDS011;57313;47.040;15.498;2022-09-20T02:25:48;9.63;;;1.45;;
61036;SDS011;57313;47.040;15.498;2022-09-20T02:28:30;3.85;;;1.15;;
61036;SDS011;57313;47.040;15.498;2022-09-20T02:31:09;4.20;;;1.30;;
61036;SDS011;57313;47.040;15.498;2022-09-20T02:33:51;3.58;;;1.20;;
61036;SDS011;57313;47.040;15.498;2022-09-20T02:36:36;3.25;;;1.20;;
61036;SDS011;57313;47.040;15.498;2022-09-20T02:39:14;3.35;;;1.08;;
61036;SDS011;57313;47.040;15.498;2022-09-20T02:41:50;4.70;;;1.23;;
61036;SDS011;57313;47.040;15.498;2022-09-20T02:44:26;3.50;;;1.08;;
61036;SDS011;57313;47.040;15.498;2022-09-20T02:47:05;4.22;;;1.10;;
61036;SDS011;57313;47.040;15.498;2022-09-20T02:49:50;3.78;;;1.23;;
61036;SDS011;57313;47.040;15.498;2022-09-20T02:52:31;3.20;;;1.05;;
61036;SDS011;57313;47.040;15.498;2022-09-20T02:55:06;4.00;;;1.17;;
61036;SDS011;57313;47.040;15.498;2022-09-20T02:57:42;2.55;;;1.00;;
61036;SDS011;57313;47.040;15.498;2022-09-20T03:00:19;3.13;;;1.20;;
61036;SDS011;57313;47.040;15.498;2022-09-20T03:02:57;3.45;;;1.38;;
61036;SDS011;57313;47.040;15.498;2022-09-20T03:05:36;2.58;;;0.90;;
61036;SDS011;57313;47.040;15.498;2022-09-20T03:08:25;3.70;;;1.10;;
61036;SDS011;57313;47.040;15.498;2022-09-20T03:11:05;7.32;;;2.20;;
61036;SDS011;57313;47.040;15.498;2022-09-20T03:13:45;3.88;;;1.40;;
61036;SDS011;57313;47.040;15.498;2022-09-20T03:16:30;3.05;;;1.17;;
61036;SDS011;57313;47.040;15.498;2022-09-20T03:19:09;4.00;;;1.13;;
61036;SDS011;57313;47.040;15.498;2022-09-20T03:21:49;3.30;;;1.20;;
61036;SDS011;57313;47.040;15.498;2022-09-20T03:24:28;3.08;;;1.30;;
61036;SDS011;57313;47.040;15.498;2022-09-20T03:27:06;6.00;;;1.92;;
61036;SDS011;57313;47.040;15.498;2022-09-20T03:29:47;4.35;;;1.35;;
61036;SDS011;57313;47.040;15.498;2022-09-20T03:32:35;5.30;;;1.85;;
61036;SDS011;57313;47.040;15.498;2022-09-20T03:35:15;5.45;;;1.23;;
61036;SDS011;57313;47.040;15.498;2022-09-20T03:37:56;3.88;;;1.65;;
61036;SDS011;57313;47.040;15.498;2022-09-20T03:43:39;3.40;;;1.02;;
61036;SDS011;57313;47.040;15.498;2022-09-20T03:46:20;4.40;;;1.30;;
61036;SDS011;57313;47.040;15.498;2022-09-20T03:49:08;2.95;;;0.98;;
61036;SDS011;57313;47.040;15.498;2022-09-20T03:51:53;2.50;;;1.00;;
61036;SDS011;57313;47.040;15.498;2022-09-20T03:57:51;3.92;;;1.20;;
61036;SDS011;57313;47.040;15.498;2022-09-20T04:00:37;3.00;;;1.13;;
61036;SDS011;57313;47.040;15.498;2022-09-20T04:03:24;4.63;;;1.20;;
61036;SDS011;57313;47.040;15.498;2022-09-20T04:06:15;3.92;;;1.42;;
61036;SDS011;57313;47.040;15.498;2022-09-20T04:09:00;4.75;;;0.95;;
61036;SDS011;57313;47.040;15.498;2022-09-20T04:11:58;3.90;;;1.52;;
61036;SDS011;57313;47.040;15.498;2022-09-20T04:14:36;3.75;;;1.40;;
61036;SDS011;57313;47.040;15.498;2022-09-20T04:17:17;4.88;;;1.30;;
61036;SDS011;57313;47.040;15.498;2022-09-20T04:19:55;3.00;;;1.00;;
61036;SDS011;57313;47.040;15.498;2022-09-20T04:22:29;3.13;;;1.20;;
61036;SDS011;57313;47.040;15.498;2022-09-20T04:24:59;2.72;;;0.90;;
61036;SDS011;57313;47.040;15.498;2022-09-20T04:27:32;2.85;;;1.15;;
61036;SDS011;57313;47.040;15.498;2022-09-20T04:30:13;2.55;;;0.93;;
61036;SDS011;57313;47.040;15.498;2022-09-20T04:32:45;4.55;;;1.30;;
61036;SDS011;57313;47.040;15.498;2022-09-20T04:35:24;5.40;;;1.15;;
61036;SDS011;57313;47.040;15.498;2022-09-20T04:37:58;3.83;;;1.42;;
61036;SDS011;57313;47.040;15.498;2022-09-20T04:40:31;6.95;;;1.40;;
61036;SDS011;57313;47.040;15.498;2022-09-20T04:46:37;4.68;;;1.38;;
61036;SDS011;57313;47.040;15.498;2022-09-20T04:52:21;9.07;;;5.15;;
61036;SDS011;57313;47.040;15.498;2022-09-20T04:58:14;9.70;;;4.85;;
61036;SDS011;57313;47.040;15.498;2022-09-20T05:01:11;9.63;;;4.70;;
61036;SDS011;57313;47.040;15.498;2022-09-20T05:04:14;7.63;;;3.37;;
61036;SDS011;57313;47.040;15.498;2022-09-20T05:07:14;8.23;;;3.72;;
61036;SDS011;57313;47.040;15.498;2022-09-20T05:10:24;6.60;;;2.13;;
61036;SDS011;57313;47.040;15.498;2022-09-20T05:13:12;7.78;;;2.13;;
61036;SDS011;57313;47.040;15.498;2022-09-20T05:15:50;4.55;;;1.30;;
61036;SDS011;57313;47.040;15.498;2022-09-20T05:24:39;7.88;;;2.50;;
61036;SDS011;57313;47.040;15.498;2022-09-20T05:27:34;4.55;;;2.05;;
61036;SDS011;57313;47.040;15.498;2022-09-20T05:30:11;5.90;;;1.98;;
61036;SDS011;57313;47.040;15.498;2022-09-20T05:32:46;7.32;;;1.95;;
61036;SDS011;57313;47.040;15.498;2022-09-20T05:35:25;7.55;;;2.40;;
61036;SDS011;57313;47.040;15.498;2022-09-20T05:37:59;6.88;;;2.10;;
61036;SDS011;57313;47.040;15.498;2022-09-20T05:40:34;8.15;;;2.35;;
61036;SDS011;57313;47.040;15.498;2022-09-20T05:43:22;8.85;;;2.95;;
61036;SDS011;57313;47.040;15.498;2022-09-20T05:48:35;13.65;;;3.28;;
61036;SDS011;57313;47.040;15.498;2022-09-20T05:51:12;8.95;;;3.10;;
61036;SDS011;57313;47.040;15.498;2022-09-20T05:54:06;12.43;;;3.15;;
61036;SDS011;57313;47.040;15.498;2022-09-20T05:56:53;9.35;;;3.80;;
61036;SDS011;57313;47.040;15.498;2022-09-20T05:59:33;7.13;;;2.85;;
61036;SDS011;57313;47.040;15.498;2022-09-20T06:02:14;8.55;;;2.72;;
61036;SDS011;57313;47.040;15.498;2022-09-20T06:04:51;8.35;;;3.25;;
61036;SDS011;57313;47.040;15.498;2022-09-20T06:07:30;6.97;;;2.40;;
61036;SDS011;57313;47.040;15.498;2022-09-20T06:10:13;8.60;;;2.90;;
61036;SDS011;57313;47.040;15.498;2022-09-20T06:12:50;10.60;;;3.33;;
61036;SDS011;57313;47.040;15.498;2022-09-20T06:15:25;7.00;;;2.60;;
61036;SDS011;57313;47.040;15.498;2022-09-20T06:18:01;7.72;;;2.70;;
61036;SDS011;57313;47.040;15.498;2022-09-20T06:20:45;9.63;;;2.45;;
61036;SDS011;57313;47.040;15.498;2022-09-20T06:23:20;7.85;;;2.97;;
61036;SDS011;57313;47.040;15.498;2022-09-20T06:25:49;7.85;;;3.10;;
61036;SDS011;57313;47.040;15.498;2022-09-20T06:28:23;8.07;;;2.78;;
61036;SDS011;57313;47.040;15.498;2022-09-20T06:30:54;8.85;;;3.53;;
61036;SDS011;57313;47.040;15.498;2022-09-20T06:33:22;10.80;;;3.58;;
61036;SDS011;57313;47.040;15.498;2022-09-20T06:35:51;7.95;;;3.00;;
61036;SDS011;57313;47.040;15.498;2022-09-20T06:38:32;8.57;;;3.08;;
61036;SDS011;57313;47.040;15.498;2022-09-20T06:41:08;13.27;;;4.18;;
61036;SDS011;57313;47.040;15.498;2022-09-20T06:43:37;11.57;;;4.47;;
61036;SDS011;57313;47.040;15.498;2022-09-20T06:46:05;10.73;;;3.50;;
61036;SDS011;57313;47.040;15.498;2022-09-20T06:48:32;9.82;;;3.72;;
61036;SDS011;57313;47.040;15.498;2022-09-20T06:51:00;9.80;;;3.70;;
61036;SDS011;57313;47.040;15.498;2022-09-20T06:53:28;6.70;;;2.42;;
61036;SDS011;57313;47.040;15.498;2022-09-20T06:55:58;7.47;;;2.92;;
61036;SDS011;57313;47.040;15.498;2022-09-20T06:58:27;6.93;;;2.40;;
61036;SDS011;57313;47.040;15.498;2022-09-20T07:00:57;8.52;;;2.70;;
61036;SDS011;57313;47.040;15.498;2022-09-20T07:03:25;8.35;;;2.67;;
61036;SDS011;57313;47.040;15.498;2022-09-20T07:05:53;6.18;;;2.17;;
61036;SDS011;57313;47.040;15.498;2022-09-20T07:08:20;7.47;;;2.50;;
61036;SDS011;57313;47.040;15.498;2022-09-20T07:10:47;7.95;;;2.30;;
61036;SDS011;57313;47.040;15.498;2022-09-20T07:13:14;6.22;;;2.13;;
61036;SDS011;57313;47.040;15.498;2022-09-20T07:15:42;10.00;;;2.53;;
61036;SDS011;57313;47.040;15.498;2022-09-20T07:18:10;6.78;;;2.47;;
61036;SDS011;57313;47.040;15.498;2022-09-20T07:20:38;7.65;;;2.70;;
61036;SDS011;57313;47.040;15.498;2022-09-20T07:23:05;5.78;;;2.08;;
61036;SDS011;57313;47.040;15.498;2022-09-20T07:25:32;5.78;;;2.20;;
61036;SDS011;57313;47.040;15.498;2022-09-20T07:27:59;5.38;;;1.48;;
61036;SDS011;57313;47.040;15.498;2022-09-20T07:30:27;5.88;;;2.03;;
61036;SDS011;57313;47.040;15.498;2022-09-20T07:32:54;3.47;;;1.17;;
61036;SDS011;57313;47.040;15.498;2022-09-20T07:35:25;4.63;;;0.90;;
61036;SDS011;57313;47.040;15.498;2022-09-20T07:37:55;2.30;;;0.80;;
61036;SDS011;57313;47.040;15.498;2022-09-20T07:40:23;2.95;;;0.80;;
61036;SDS011;57313;47.040;15.498;2022-09-20T07:42:50;2.03;;;0.82;;
61036;SDS011;57313;47.040;15.498;2022-09-20T07:45:21;1.88;;;0.80;;
61036;SDS011;57313;47.040;15.498;2022-09-20T07:47:49;3.28;;;0.80;;
61036;SDS011;57313;47.040;15.498;2022-09-20T07:50:16;3.47;;;0.90;;
61036;SDS011;57313;47.040;15.498;2022-09-20T07:52:47;2.92;;;0.88;;
61036;SDS011;57313;47.040;15.498;2022-09-20T07:55:15;3.45;;;0.90;;
61036;SDS011;57313;47.040;15.498;2022-09-20T07:57:42;3.50;;;1.00;;
61036;SDS011;57313;47.040;15.498;2022-09-20T08:00:10;2.60;;;0.90;;
61036;SDS011;57313;47.040;15.498;2022-09-20T08:02:37;2.47;;;0.80;;
61036;SDS011;57313;47.040;15.498;2022-09-20T08:05:05;2.45;;;1.00;;
61036;SDS011;57313;47.040;15.498;2022-09-20T08:07:33;4.18;;;1.40;;
61036;SDS011;57313;47.040;15.498;2022-09-20T08:10:02;4.72;;;1.50;;
61036;SDS011;57313;47.040;15.498;2022-09-20T08:12:29;3.97;;;1.35;;
61036;SDS011;57313;47.040;15.498;2022-09-20T08:15:17;3.35;;;0.98;;
61036;SDS011;57313;47.040;15.498;2022-09-20T08:17:45;3.17;;;0.80;;
61036;SDS011;57313;47.040;15.498;2022-09-20T08:20:13;1.90;;;0.70;;
61036;SDS011;57313;47.040;15.498;2022-09-20T08:22:40;1.75;;;0.70;;
61036;SDS011;57313;47.040;15.498;2022-09-20T08:25:09;2.10;;;0.90;;
61036;SDS011;57313;47.040;15.498;2022-09-20T08:27:36;1.42;;;0.70;;
61036;SDS011;57313;47.040;15.498;2022-09-20T08:30:04;2.03;;;0.68;;
61036;SDS011;57313;47.040;15.498;2022-09-20T08:32:32;2.03;;;0.80;;
61036;SDS011;57313;47.040;15.498;2022-09-20T08:34:59;2.50;;;0.75;;
61036;SDS011;57313;47.040;15.498;2022-09-20T08:37:26;5.43;;;0.93;;
61036;SDS011;57313;47.040;15.498;2022-09-20T08:39:54;3.63;;;0.98;;
61036;SDS011;57313;47.040;15.498;2022-09-20T08:42:26;2.03;;;0.70;;
61036;SDS011;57313;47.040;15.498;2022-09-20T08:45:10;2.20;;;0.70;;
61036;SDS011;57313;47.040;15.498;2022-09-20T08:47:48;3.75;;;0.93;;
61036;SDS011;57313;47.040;15.498;2022-09-20T08:52:51;8.77;;;0.80;;
61036;SDS011;57313;47.040;15.498;2022-09-20T08:55:27;3.45;;;0.90;;
61036;SDS011;57313;47.040;15.498;2022-09-20T08:57:56;3.97;;;1.10;;
61036;SDS011;57313;47.040;15.498;2022-09-20T09:00:24;5.93;;;1.17;;
61036;SDS011;57313;47.040;15.498;2022-09-20T09:02:55;12.63;;;3.45;;
61036;SDS011;57313;47.040;15.498;2022-09-20T09:05:31;23.08;;;6.43;;
61036;SDS011;57313;47.040;15.498;2022-09-20T09:10:31;9.15;;;2.72;;
61036;SDS011;57313;47.040;15.498;2022-09-20T09:13:02;7.32;;;1.83;;
61036;SDS011;57313;47.040;15.498;2022-09-20T09:15:31;2.90;;;1.08;;
61036;SDS011;57313;47.040;15.498;2022-09-20T09:18:00;2.10;;;0.70;;
61036;SDS011;57313;47.040;15.498;2022-09-20T09:20:28;1.48;;;0.60;;
61036;SDS011;57313;47.040;15.498;2022-09-20T09:23:06;1.17;;;0.60;;
61036;SDS011;57313;47.040;15.498;2022-09-20T09:25:36;2.20;;;0.80;;
61036;SDS011;57313;47.040;15.498;2022-09-20T09:28:13;1.42;;;0.60;;
61036;SDS011;57313;47.040;15.498;2022-09-20T09:30:41;1.17;;;0.50;;
61036;SDS011;57313;47.040;15.498;2022-09-20T09:33:17;1.58;;;0.55;;
61036;SDS011;57313;47.040;15.498;2022-09-20T09:35:53;1.00;;;0.55;;
61036;SDS011;57313;47.040;15.498;2022-09-20T09:40:54;1.50;;;0.40;;
61036;SDS011;57313;47.040;15.498;2022-09-20T09:43:25;0.70;;;0.50;;
61036;SDS011;57313;47.040;15.498;2022-09-20T09:45:56;0.40;;;0.40;;
61036;SDS011;57313;47.040;15.498;2022-09-20T09:48:43;0.93;;;0.52;;
61036;SDS011;57313;47.040;15.498;2022-09-20T09:51:12;0.55;;;0.40;;
61036;SDS011;57313;47.040;15.498;2022-09-20T09:53:41;1.13;;;0.50;;
61036;SDS011;57313;47.040;15.498;2022-09-20T09:56:12;0.95;;;0.50;;
61036;SDS011;57313;47.040;15.498;2022-09-20T10:02:16;1.42;;;0.70;;
61036;SDS011;57313;47.040;15.498;2022-09-20T10:04:56;0.70;;;0.30;;
61036;SDS011;57313;47.040;15.498;2022-09-20T10:07:29;0.45;;;0.40;;
61036;SDS011;57313;47.040;15.498;2022-09-20T10:10:03;1.08;;;0.43;;
61036;SDS011;57313;47.040;15.498;2022-09-20T10:12:41;1.02;;;0.50;;
61036;SDS011;57313;47.040;15.498;2022-09-20T10:15:23;2.30;;;0.60;;
61036;SDS011;57313;47.040;15.498;2022-09-20T10:18:03;0.30;;;0.30;;
61036;SDS011;57313;47.040;15.498;2022-09-20T10:20:47;0.50;;;0.40;;
61036;SDS011;57313;47.040;15.498;2022-09-20T10:23:31;0.93;;;0.50;;
61036;SDS011;57313;47.040;15.498;2022-09-20T10:26:30;0.85;;;0.38;;
61036;SDS011;57313;47.040;15.498;2022-09-20T10:29:11;0.60;;;0.50;;
61036;SDS011;57313;47.040;15.498;2022-09-20T10:31:50;0.40;;;0.40;;
61036;SDS011;57313;47.040;15.498;2022-09-20T10:34:27;0.57;;;0.40;;
61036;SDS011;57313;47.040;15.498;2022-09-20T10:37:12;0.47;;;0.40;;
61036;SDS011;57313;47.040;15.498;2022-09-20T10:39:46;1.10;;;0.40;;
61036;SDS011;57313;47.040;15.498;2022-09-20T10:42:21;0.40;;;0.32;;
61036;SDS011;57313;47.040;15.498;2022-09-20T10:45:00;0.77;;;0.40;;
61036;SDS011;57313;47.040;15.498;2022-09-20T10:47:37;0.80;;;0.45;;
61036;SDS011;57313;47.040;15.498;2022-09-20T10:50:19;0.40;;;0.40;;
61036;SDS011;57313;47.040;15.498;2022-09-20T10:53:05;1.42;;;0.60;;
61036;SDS011;57313;47.040;15.498;2022-09-20T10:55:45;0.73;;;0.40;;
61036;SDS011;57313;47.040;15.498;2022-09-20T10:58:34;1.05;;;0.50;;
61036;SDS011;57313;47.040;15.498;2022-09-20T11:01:13;1.15;;;0.50;;
61036;SDS011;57313;47.040;15.498;2022-09-20T11:03:55;0.75;;;0.40;;
61036;SDS011;57313;47.040;15.498;2022-09-20T11:06:49;1.30;;;0.52;;
61036;SDS011;57313;47.040;15.498;2022-09-20T11:09:22;2.05;;;0.40;;
61036;SDS011;57313;47.040;15.498;2022-09-20T11:11:57;0.85;;;0.40;;
61036;SDS011;57313;47.040;15.498;2022-09-20T11:14:30;0.95;;;0.40;;
61036;SDS011;57313;47.040;15.498;2022-09-20T11:17:02;3.30;;;0.50;;
61036;SDS011;57313;47.040;15.498;2022-09-20T11:19:38;1.35;;;0.52;;
61036;SDS011;57313;47.040;15.498;2022-09-20T11:22:19;0.85;;;0.50;;
61036;SDS011;57313;47.040;15.498;2022-09-20T11:24:50;0.60;;;0.40;;
61036;SDS011;57313;47.040;15.498;2022-09-20T11:27:22;2.15;;;0.50;;
61036;SDS011;57313;47.040;15.498;2022-09-20T11:29:57;0.60;;;0.40;;
61036;SDS011;57313;47.040;15.498;2022-09-20T11:32:29;0.57;;;0.40;;
61036;SDS011;57313;47.040;15.498;2022-09-20T11:35:02;0.82;;;0.40;;
61036;SDS011;57313;47.040;15.498;2022-09-20T11:37:42;0.63;;;0.32;;
61036;SDS011;57313;47.040;15.498;2022-09-20T11:40:18;1.05;;;0.52;;
61036;SDS011;57313;47.040;15.498;2022-09-20T11:42:52;1.85;;;0.50;;
61036;SDS011;57313;47.040;15.498;2022-09-20T11:45:22;0.88;;;0.47;;
61036;SDS011;57313;47.040;15.498;2022-09-20T11:47:55;0.70;;;0.40;;
61036;SDS011;57313;47.040;15.498;2022-09-20T11:50:35;1.02;;;0.43;;
61036;SDS011;57313;47.040;15.498;2022-09-20T11:53:36;1.67;;;0.55;;
61036;SDS011;57313;47.040;15.498;2022-09-20T11:56:17;1.42;;;0.50;;
61036;SDS011;57313;47.040;15.498;2022-09-20T11:58:47;0.73;;;0.50;;
61036;SDS011;57313;47.040;15.498;2022-09-20T12:01:22;1.15;;;0.50;;
61036;SDS011;57313;47.040;15.498;2022-09-20T12:03:54;1.48;;;0.60;;
61036;SDS011;57313;47.040;15.498;2022-09-20T12:06:44;1.00;;;0.45;;
61036;SDS011;57313;47.040;15.498;2022-09-20T12:09:22;2.67;;;0.80;;
61036;SDS011;57313;47.040;15.498;2022-09-20T12:11:51;0.80;;;0.50;;
61036;SDS011;57313;47.040;15.498;2022-09-20T12:14:21;2.28;;;0.43;;
61036;SDS011;57313;47.040;15.498;2022-09-20T12:16:50;1.45;;;0.60;;
61036;SDS011;57313;47.040;15.498;2022-09-20T12:22:24;1.38;;;0.52;;
61036;SDS011;57313;47.040;15.498;2022-09-20T12:28:01;1.52;;;0.50;;
61036;SDS011;57313;47.040;15.498;2022-09-20T12:30:29;1.05;;;0.57;;
61036;SDS011;57313;47.040;15.498;2022-09-20T12:32:56;0.88;;;0.50;;
61036;SDS011;57313;47.040;15.498;2022-09-20T12:39:02;1.40;;;0.60;;
61036;SDS011;57313;47.040;15.498;2022-09-20T12:41:45;1.35;;;0.50;;
61036;SDS011;57313;47.040;15.498;2022-09-20T12:44:26;1.13;;;0.50;;
61036;SDS011;57313;47.040;15.498;2022-09-20T12:46:57;0.88;;;0.50;;
61036;SDS011;57313;47.040;15.498;2022-09-20T12:49:36;1.67;;;0.60;;
61036;SDS011;57313;47.040;15.498;2022-09-20T12:52:28;0.88;;;0.50;;
61036;SDS011;57313;47.040;15.498;2022-09-20T12:54:59;1.05;;;0.50;;
61036;SDS011;57313;47.040;15.498;2022-09-20T12:57:33;3.22;;;0.60;;
61036;SDS011;57313;47.040;15.498;2022-09-20T13:00:03;1.17;;;0.50;;
61036;SDS011;57313;47.040;15.498;2022-09-20T13:02:54;1.23;;;0.50;;
61036;SDS011;57313;47.040;15.498;2022-09-20T13:05:30;1.42;;;0.60;;
61036;SDS011;57313;47.040;15.498;2022-09-20T13:08:13;1.17;;;0.57;;
61036;SDS011;57313;47.040;15.498;2022-09-20T13:10:43;2.92;;;0.60;;
61036;SDS011;57313;47.040;15.498;2022-09-20T13:13:25;2.00;;;0.70;;
61036;SDS011;57313;47.040;15.498;2022-09-20T13:15:58;1.95;;;0.60;;
61036;SDS011;57313;47.040;15.498;2022-09-20T13:18:27;1.05;;;0.50;;
61036;SDS011;57313;47.040;15.498;2022-09-20T13:20:55;1.95;;;0.70;;
61036;SDS011;57313;47.040;15.498;2022-09-20T13:23:24;0.68;;;0.50;;
61036;SDS011;57313;47.040;15.498;2022-09-20T13:25:55;0.60;;;0.40;;
61036;SDS011;57313;47.040;15.498;2022-09-20T13:28:25;1.48;;;0.47;;
61036;SDS011;57313;47.040;15.498;2022-09-20T13:33:52;1.08;;;0.55;;
61036;SDS011;57313;47.040;15.498;2022-09-20T13:36:24;3.20;;;0.77;;
61036;SDS011;57313;47.040;15.498;2022-09-20T13:38:54;1.20;;;0.57;;
61036;SDS011;57313;47.040;15.498;2022-09-20T13:41:23;0.65;;;0.40;;
61036;SDS011;57313;47.040;15.498;2022-09-20T13:43:54;1.15;;;0.50;;
61036;SDS011;57313;47.040;15.498;2022-09-20T13:46:22;3.45;;;0.50;;
61036;SDS011;57313;47.040;15.498;2022-09-20T13:49:13;1.85;;;0.50;;
61036;SDS011;57313;47.040;15.498;2022-09-20T13:51:41;1.15;;;0.60;;
61036;SDS011;57313;47.040;15.498;2022-09-20T13:54:24;0.73;;;0.35;;
61036;SDS011;57313;47.040;15.498;2022-09-20T13:56:54;1.52;;;0.50;;
61036;SDS011;57313;47.040;15.498;2022-09-20T13:59:25;1.02;;;0.45;;
61036;SDS011;57313;47.040;15.498;2022-09-20T14:01:58;1.65;;;0.52;;
61036;SDS011;57313;47.040;15.498;2022-09-20T14:04:28;1.05;;;0.50;;
61036;SDS011;57313;47.040;15.498;2022-09-20T14:06:57;0.95;;;0.43;;
61036;SDS011;57313;47.040;15.498;2022-09-20T14:09:26;1.10;;;0.50;;
61036;SDS011;57313;47.040;15.498;2022-09-20T14:11:56;1.20;;;0.57;;
61036;SDS011;57313;47.040;15.498;2022-09-20T14:14:25;1.02;;;0.50;;
61036;SDS011;57313;47.040;15.498;2022-09-20T14:16:54;0.93;;;0.50;;
61036;SDS011;57313;47.040;15.498;2022-09-20T14:19:25;0.90;;;0.43;;
61036;SDS011;57313;47.040;15.498;2022-09-20T14:21:57;0.68;;;0.40;;
61036;SDS011;57313;47.040;15.498;2022-09-20T14:24:29;0.93;;;0.50;;
61036;SDS011;57313;47.040;15.498;2022-09-20T14:26:59;1.15;;;0.50;;
61036;SDS011;57313;47.040;15.498;2022-09-20T14:29:34;0.57;;;0.40;;
61036;SDS011;57313;47.040;15.498;2022-09-20T14:32:06;1.00;;;0.40;;
61036;SDS011;57313;47.040;15.498;2022-09-20T14:34:55;0.63;;;0.40;;
61036;SDS011;57313;47.040;15.498;2022-09-20T14:37:27;1.40;;;0.50;;
61036;SDS011;57313;47.040;15.498;2022-09-20T14:39:56;1.38;;;0.50;;
61036;SDS011;57313;47.040;15.498;2022-09-20T14:42:27;1.58;;;0.60;;
61036;SDS011;57313;47.040;15.498;2022-09-20T14:44:57;1.33;;;0.60;;
61036;SDS011;57313;47.040;15.498;2022-09-20T14:47:26;1.60;;;0.50;;
61036;SDS011;57313;47.040;15.498;2022-09-20T14:49:56;2.47;;;0.60;;
61036;SDS011;57313;47.040;15.498;2022-09-20T14:52:31;3.33;;;0.70;;
61036;SDS011;57313;47.040;15.498;2022-09-20T14:55:10;1.00;;;0.60;;
61036;SDS011;57313;47.040;15.498;2022-09-20T14:57:44;1.17;;;0.50;;
61036;SDS011;57313;47.040;15.498;2022-09-20T15:00:14;0.95;;;0.50;;
61036;SDS011;57313;47.040;15.498;2022-09-20T15:02:43;3.53;;;0.60;;
61036;SDS011;57313;47.040;15.498;2022-09-20T15:05:19;2.25;;;0.60;;
61036;SDS011;57313;47.040;15.498;2022-09-20T15:07:49;1.05;;;0.50;;
61036;SDS011;57313;47.040;15.498;2022-09-20T15:10:18;2.08;;;0.60;;
61036;SDS011;57313;47.040;15.498;2022-09-20T15:12:45;2.40;;;0.73;;
61036;SDS011;57313;47.040;15.498;2022-09-20T15:15:14;4.45;;;0.70;;
61036;SDS011;57313;47.040;15.498;2022-09-20T15:17:43;2.00;;;0.70;;
61036;SDS011;57313;47.040;15.498;2022-09-20T15:20:12;2.05;;;0.60;;
61036;SDS011;57313;47.040;15.498;2022-09-20T15:22:49;3.42;;;0.90;;
61036;SDS011;57313;47.040;15.498;2022-09-20T15:25:17;1.58;;;0.50;;
61036;SDS011;57313;47.040;15.498;2022-09-20T15:27:46;2.15;;;0.73;;
61036;SDS011;57313;47.040;15.498;2022-09-20T15:30:15;2.15;;;0.80;;
61036;SDS011;57313;47.040;15.498;2022-09-20T15:32:44;2.13;;;0.70;;
61036;SDS011;57313;47.040;15.498;2022-09-20T15:35:12;3.45;;;0.70;;
61036;SDS011;57313;47.040;15.498;2022-09-20T15:37:40;9.10;;;2.13;;
61036;SDS011;57313;47.040;15.498;2022-09-20T15:40:11;5.00;;;1.27;;
61036;SDS011;57313;47.040;15.498;2022-09-20T15:42:39;1.15;;;0.52;;
61036;SDS011;57313;47.040;15.498;2022-09-20T15:45:08;1.05;;;0.50;;
61036;SDS011;57313;47.040;15.498;2022-09-20T15:47:36;1.85;;;0.70;;
61036;SDS011;57313;47.040;15.498;2022-09-20T15:50:04;1.60;;;0.68;;
61036;SDS011;57313;47.040;15.498;2022-09-20T15:52:33;1.13;;;0.52;;
61036;SDS011;57313;47.040;15.498;2022-09-20T15:55:00;0.73;;;0.45;;
61036;SDS011;57313;47.040;15.498;2022-09-20T15:57:30;1.23;;;0.40;;
61036;SDS011;57313;47.040;15.498;2022-09-20T15:59:57;1.45;;;0.50;;
61036;SDS011;57313;47.040;15.498;2022-09-20T16:02:25;2.08;;;0.70;;
61036;SDS011;57313;47.040;15.498;2022-09-20T16:04:52;2.25;;;0.70;;
61036;SDS011;57313;47.040;15.498;2022-09-20T16:07:20;1.42;;;0.50;;
61036;SDS011;57313;47.040;15.498;2022-09-20T16:09:48;1.42;;;0.52;;
61036;SDS011;57313;47.040;15.498;2022-09-20T16:12:15;2.13;;;0.60;;
61036;SDS011;57313;47.040;15.498;2022-09-20T16:14:44;1.35;;;0.50;;